Wednesday, July 24, 2019, 5:10 AM EDT
Back to Local

KASH, Nashua, Boire Field Airport

Location: Nashua, NH, United States Lat: 42.782
Local Time: 5:10 AM EDT ( 9:10 GMT) Lon: -71.515
Time Zone: US/Eastern Elev: 200 ft

Show me the last for .
Show Decoded

2019-07-24 04:56 METAR KASH 240856Z AUTO 29003KT 10SM CLR 17/17 A2990 RMK AO2 SLP130 T01720172
                 55006 =
2019-07-24 03:56 METAR KASH 240756Z AUTO 00000KT 10SM FEW110 17/17 A2990 RMK AO2 SLP128 T01720172
                 =
2019-07-24 02:56 METAR KASH 240656Z AUTO 00000KT 10SM BKN100 18/18 A2991 RMK AO2 SLP132 T01780178
                 =
2019-07-24 01:56 METAR KASH 240556Z AUTO 00000KT 10SM SCT100 18/18 A2992 RMK AO2 SLP135 T01780178
                 10194 20172 55006 =
2019-07-24 00:56 METAR KASH 240456Z AUTO 00000KT 10SM FEW100 17/17 A2992 RMK AO2 SLP134 T01720172
                 402220161 =
2019-07-23 23:56 METAR KASH 240356Z AUTO 00000KT 10SM CLR 18/18 A2991 RMK AO2 SLP133 T01780178 =
2019-07-23 22:56 METAR KASH 240256Z AUTO 00000KT 10SM BKN100 18/18 A2994 RMK AO2 SLP142 T01830178
                 53009 =
2019-07-23 21:56 METAR KASH 240156Z AUTO 00000KT 10SM CLR 18/18 A2993 RMK AO2 SLP139 T01780178 =
2019-07-23 20:56 METAR KASH 240056Z 00000KT 10SM CLR 18/18 A2992 RMK AO2 SLP134 T01830178 =
2019-07-23 19:56 METAR KASH 232356Z 22003KT 10SM FEW110 19/17 A2991 RMK AO2 SLP133 T01940172
                 10222 20189 53010 =
2019-07-23 18:56 METAR KASH 232256Z 00000KT 10SM FEW080 20/18 A2989 RMK AO2 SLP127 T02000183 =
2019-07-23 17:56 METAR KASH 232156Z 00000KT 10SM SCT080 22/16 A2990 RMK AO2 SLP129 T02170161 =
2019-07-23 16:56 METAR KASH 232056Z 35005KT 10SM FEW022 SCT120 22/15 A2988 RMK AO2 SLP122
                 T02170150 50007 =
2019-07-23 15:56 METAR KASH 231956Z 34004KT 10SM FEW022 SCT027 OVC070 21/16 A2989 RMK AO2 SLP124
                 T02060161 =
2019-07-23 15:06 METAR KASH 231906Z 35006KT 10SM SCT015 SCT023 OVC065 19/16 A2988 RMK AO2 =
2019-07-23 14:56 METAR KASH 231856Z COR 35005KT 10SM SCT015 SCT023 OVC065 19/15 A2988 RMK AO2
                 SLP122 T01940150 =
2019-07-23 13:56 METAR KASH 231756Z 36007KT 10SM SCT009 BKN014 OVC049 19/16 A2986 RMK AO2 SLP116
                 60015 T01940156 10194 20161 58000 =
2019-07-23 12:56 METAR KASH 231656Z 35008KT 320V030 10SM BKN013 BKN024 OVC041 18/17 A2987 RMK AO2
                 SLP117 T01780167 =
2019-07-23 11:56 METAR KASH 231556Z 04005KT 10SM BKN009 BKN021 OVC041 17/16 A2986 RMK AO2 RAE33
                 SLP116 P0001 T01670161 =
2019-07-23 11:19 METAR KASH 231519Z VRB04KT 10SM -RA BKN007 BKN015 OVC090 16/16 A2987 RMK AO2
                 P0001 =
2019-07-23 10:56 METAR KASH 231456Z 35004KT 10SM -RA SCT013 BKN050 OVC110 16/16 A2986 RMK AO2
                 SLP117 P0005 60014 T01610161 51006 =
2019-07-23 09:56 METAR KASH 231356Z 02004KT 10SM RA SCT013 OVC019 17/16 A2986 RMK AO2 SLP117
                 P0005 T01670161 =
2019-07-23 08:56 METAR KASH 231256Z 02009KT 10SM -RA SCT009 OVC014 17/17 A2985 RMK AO2 SLP111
                 P0004 T01720172 =
2019-07-23 07:56 METAR KASH 231156Z 01005KT 10SM -RA BKN007 OVC012 17/17 A2985 RMK AO2 CIG
                 004V009 SLP110 P0009 60112 70225 T01720172 10178 20172 51014 =
2019-07-23 06:56 METAR KASH 231056Z 33004KT 6SM RA BR BKN007 BKN075 OVC090 17/17 A2984 RMK AO2
                 SLP107 P0022 T01720172 =
2019-07-23 06:47 METAR KASH 231047Z AUTO VRB03KT 7SM RA FEW007 BKN075 OVC090 17/17 A2983 RMK AO2
                 P0020 =
2019-07-23 06:33 METAR KASH 231033Z AUTO 00000KT 6SM RA BR SCT007 BKN024 OVC075 17/17 A2983 RMK
                 AO2 P0016 =
2019-07-23 05:56 METAR KASH 230956Z AUTO VRB03KT 5SM +RA BR BKN007 BKN010 OVC033 17/17 A2983 RMK
                 AO2 SLP104 P0023 T01720172 =

Support USWX by starting your Amazon purchase here.